Time;durP1;ratioP1;P1;durP2;ratioP2;P2;SDS_P1;SDS_P2;PMS_P1;PMS_P2;Temp;Humidity;BMP_temperature;BMP_pressure;BME280_temperature;BME280_humidity;BME280_pressure;Samples;Min_cycle;Max_cycle;Signal;HPM_P1;HPM_P2
2021/12/27 00:00:52;;;;;;;19.65;14.55;;;;;;;;;;5020880;28;20380;-51
2021/12/27 00:03:18;;;;;;;21.40;14.73;;;;;;;;;;5023744;28;20017;-50
2021/12/27 00:05:44;;;;;;;23.20;14.93;;;;;;;;;;5029097;28;20032;-51
2021/12/27 00:08:10;;;;;;;19.67;14.60;;;;;;;;;;5033770;28;20029;-51
2021/12/27 00:10:36;;;;;;;21.00;14.13;;;;;;;;;;5023685;28;20033;-50
2021/12/27 00:13:04;;;;;;;15.77;13.60;;;;;;;;;;5026940;28;20454;-48
2021/12/27 00:15:30;;;;;;;20.85;13.90;;;;;;;;;;5018549;28;20108;-50
2021/12/27 00:17:56;;;;;;;21.27;13.65;;;;;;;;;;5031376;28;20040;-51
2021/12/27 00:20:22;;;;;;;20.65;13.27;;;;;;;;;;5024291;28;20570;-48
2021/12/27 00:22:49;;;;;;;19.58;12.85;;;;;;;;;;5031257;28;20025;-49
2021/12/27 00:25:17;;;;;;;21.90;13.65;;;;;;;;;;5024358;28;20057;-51
2021/12/27 00:27:43;;;;;;;20.25;12.85;;;;;;;;;;5027679;28;20026;-50
2021/12/27 00:30:13;;;;;;;18.80;11.70;;;;;;;;;;5019268;28;20057;-50
2021/12/27 00:32:43;;;;;;;17.25;12.63;;;;;;;;;;5025400;28;20030;-51
2021/12/27 00:35:09;;;;;;;21.30;12.93;;;;;;;;;;5031092;28;20025;-50
2021/12/27 00:37:35;;;;;;;19.20;12.80;;;;;;;;;;5052282;28;20037;-48
2021/12/27 00:40:02;;;;;;;17.15;12.63;;;;;;;;;;5023279;28;20045;-50
2021/12/27 00:42:28;;;;;;;20.45;12.38;;;;;;;;;;5019869;28;20071;-50
2021/12/27 00:44:54;;;;;;;19.02;11.98;;;;;;;;;;5031862;28;20034;-50
2021/12/27 00:47:20;;;;;;;23.70;13.18;;;;;;;;;;5024369;28;20026;-48
2021/12/27 00:49:46;;;;;;;16.20;12.27;;;;;;;;;;5019856;28;20033;-53
2021/12/27 00:52:11;;;;;;;16.55;12.15;;;;;;;;;;5023270;28;20037;-50
2021/12/27 00:54:37;;;;;;;17.50;12.65;;;;;;;;;;5015940;28;20052;-53
2021/12/27 00:57:03;;;;;;;18.33;12.85;;;;;;;;;;5035907;28;20033;-49
2021/12/27 00:59:29;;;;;;;21.00;12.98;;;;;;;;;;5031000;28;20025;-48
2021/12/27 01:01:56;;;;;;;19.80;12.38;;;;;;;;;;5024442;28;20108;-48
2021/12/27 01:04:22;;;;;;;18.10;12.15;;;;;;;;;;5023224;28;20033;-49
2021/12/27 01:06:48;;;;;;;17.85;12.25;;;;;;;;;;5024552;28;20025;-49
2021/12/27 01:09:22;;;;;;;21.30;13.13;;;;;;;;;;5020960;28;20103;-53
2021/12/27 01:14:41;;;;;;;22.70;14.48;;;;;;;;;;5032338;28;20033;-48
2021/12/27 01:17:07;;;;;;;18.85;13.32;;;;;;;;;;5033383;28;20048;-49
2021/12/27 01:19:33;;;;;;;17.38;13.30;;;;;;;;;;5031459;28;20045;-50
2021/12/27 01:21:59;;;;;;;20.15;13.43;;;;;;;;;;5028831;28;20497;-55
2021/12/27 01:24:25;;;;;;;24.55;14.38;;;;;;;;;;5030009;28;20037;-50
2021/12/27 01:26:51;;;;;;;19.65;13.70;;;;;;;;;;5029929;28;20033;-48
2021/12/27 01:29:17;;;;;;;18.30;12.60;;;;;;;;;;5032530;28;20133;-51
2021/12/27 01:31:43;;;;;;;19.40;12.43;;;;;;;;;;5031241;28;20107;-55
2021/12/27 01:34:09;;;;;;;18.67;12.18;;;;;;;;;;5025325;28;20037;-52
2021/12/27 01:36:36;;;;;;;15.93;11.82;;;;;;;;;;5026218;28;20563;-49
2021/12/27 01:39:04;;;;;;;13.80;11.32;;;;;;;;;;5039137;28;20122;-52
2021/12/27 01:41:31;;;;;;;17.23;12.13;;;;;;;;;;5038382;28;20091;-53
2021/12/27 01:43:57;;;;;;;16.45;11.50;;;;;;;;;;5037166;28;20065;-56
2021/12/27 01:46:24;;;;;;;21.35;10.82;;;;;;;;;;5029908;28;20470;-49
2021/12/27 01:48:56;;;;;;;15.38;11.60;;;;;;;;;;5030264;28;20048;-48
2021/12/27 01:51:24;;;;;;;16.25;10.85;;;;;;;;;;5027359;28;20038;-51
2021/12/27 01:53:50;;;;;;;20.05;11.60;;;;;;;;;;5023807;28;20029;-50
2021/12/27 01:56:20;;;;;;;15.80;11.05;;;;;;;;;;5031392;28;20029;-54
2021/12/27 01:58:47;;;;;;;15.15;11.35;;;;;;;;;;5031992;28;20108;-54
2021/12/27 02:01:14;;;;;;;17.95;11.02;;;;;;;;;;5028809;28;20055;-51
2021/12/27 02:03:42;;;;;;;16.77;12.20;;;;;;;;;;5019910;28;20444;-52
2021/12/27 02:06:10;;;;;;;18.33;12.35;;;;;;;;;;5031371;28;20042;-50
2021/12/27 02:08:38;;;;;;;15.38;11.73;;;;;;;;;;5025523;28;20053;-53
2021/12/27 02:11:05;;;;;;;18.85;12.20;;;;;;;;;;5025249;28;20116;-52
2021/12/27 02:13:31;;;;;;;16.60;12.38;;;;;;;;;;5030346;28;20041;-51
2021/12/27 02:15:58;;;;;;;16.10;12.32;;;;;;;;;;5024543;28;20413;-52
2021/12/27 02:18:24;;;;;;;16.05;12.00;;;;;;;;;;5028859;28;20060;-48
2021/12/27 02:20:50;;;;;;;16.23;12.27;;;;;;;;;;5032579;28;20033;-50
2021/12/27 02:23:17;;;;;;;15.68;12.00;;;;;;;;;;5025851;28;20550;-49
2021/12/27 02:25:48;;;;;;;17.33;11.38;;;;;;;;;;5033202;28;20043;-53
2021/12/27 02:28:14;;;;;;;19.70;12.18;;;;;;;;;;5030101;28;20018;-50
2021/12/27 02:30:43;;;;;;;15.98;11.60;;;;;;;;;;5026470;28;20061;-53
2021/12/27 02:33:10;;;;;;;17.38;11.88;;;;;;;;;;5020603;28;20430;-49
2021/12/27 02:35:45;;;;;;;15.30;10.73;;;;;;;;;;5033662;28;20021;-51
2021/12/27 02:38:15;;;;;;;12.65;9.93;;;;;;;;;;5032468;28;20486;-50
2021/12/27 02:40:42;;;;;;;12.73;9.60;;;;;;;;;;5026800;28;20037;-54
2021/12/27 02:43:14;;;;;;;11.38;8.65;;;;;;;;;;5031174;28;20069;-55
2021/12/27 02:45:43;;;;;;;16.88;9.07;;;;;;;;;;5033466;28;20033;-49
2021/12/27 02:48:13;;;;;;;13.18;8.60;;;;;;;;;;5039314;28;20025;-51
2021/12/27 02:50:43;;;;;;;10.88;8.02;;;;;;;;;;5032805;28;20039;-49
2021/12/27 02:53:09;;;;;;;11.40;8.07;;;;;;;;;;5028202;28;20119;-51
2021/12/27 02:55:36;;;;;;;9.63;7.47;;;;;;;;;;5025966;28;20029;-52
2021/12/27 02:58:03;;;;;;;10.52;7.53;;;;;;;;;;5031774;28;20954;-50
2021/12/27 03:00:35;;;;;;;11.15;7.45;;;;;;;;;;5020764;28;20426;-48
2021/12/27 03:03:01;;;;;;;11.40;7.05;;;;;;;;;;5024321;28;20030;-52
2021/12/27 03:05:30;;;;;;;9.75;7.43;;;;;;;;;;5029745;28;20124;-50
2021/12/27 03:07:57;;;;;;;9.48;6.95;;;;;;;;;;5035836;28;20029;-49
2021/12/27 03:10:26;;;;;;;9.77;6.90;;;;;;;;;;5031161;28;20545;-52
2021/12/27 03:12:54;;;;;;;7.35;6.30;;;;;;;;;;5027860;28;20029;-49
2021/12/27 03:15:22;;;;;;;9.07;6.78;;;;;;;;;;5023964;28;20026;-49
2021/12/27 03:17:49;;;;;;;17.60;6.80;;;;;;;;;;5029658;28;20029;-49
2021/12/27 03:20:17;;;;;;;9.15;7.30;;;;;;;;;;5023306;28;20042;-53
2021/12/27 03:22:44;;;;;;;7.70;6.85;;;;;;;;;;5022466;28;20045;-50
2021/12/27 03:25:18;;;;;;;10.38;7.00;;;;;;;;;;5026646;28;20017;-52
2021/12/27 03:27:45;;;;;;;11.57;6.95;;;;;;;;;;5025332;28;20510;-51
2021/12/27 03:30:15;;;;;;;6.65;6.05;;;;;;;;;;5029536;28;20033;-49
2021/12/27 03:32:43;;;;;;;11.20;7.30;;;;;;;;;;5030028;28;20113;-54
2021/12/27 03:35:13;;;;;;;11.35;7.78;;;;;;;;;;5028798;28;20030;-48
2021/12/27 03:37:43;;;;;;;10.32;7.53;;;;;;;;;;5034532;28;20026;-49
2021/12/27 03:40:11;;;;;;;9.48;6.78;;;;;;;;;;5029796;28;20037;-50
2021/12/27 03:42:38;;;;;;;9.98;7.00;;;;;;;;;;5017252;28;20037;-54
2021/12/27 03:45:06;;;;;;;10.20;7.25;;;;;;;;;;5029745;28;20506;-56
2021/12/27 03:47:32;;;;;;;8.30;7.00;;;;;;;;;;5028927;28;20025;-50
2021/12/27 03:49:57;;;;;;;9.00;7.47;;;;;;;;;;5026566;28;20037;-56
2021/12/27 03:52:23;;;;;;;9.68;7.70;;;;;;;;;;5033272;28;20036;-56
2021/12/27 03:54:49;;;;;;;10.82;8.13;;;;;;;;;;5022482;28;20029;-51
2021/12/27 03:57:15;;;;;;;13.90;8.32;;;;;;;;;;5037160;28;20134;-49
2021/12/27 04:02:11;;;;;;;12.35;7.93;;;;;;;;;;5030053;28;20040;-54
2021/12/27 04:04:38;;;;;;;13.25;8.75;;;;;;;;;;5028281;28;20030;-53
2021/12/27 04:07:07;;;;;;;10.13;8.25;;;;;;;;;;5025696;28;20068;-55
2021/12/27 04:09:33;;;;;;;10.45;8.63;;;;;;;;;;5031832;28;20041;-50
2021/12/27 04:11:59;;;;;;;10.80;8.30;;;;;;;;;;5031710;28;20173;-53
2021/12/27 04:14:25;;;;;;;15.75;8.05;;;;;;;;;;5035151;28;20108;-55
2021/12/27 04:16:52;;;;;;;11.23;8.90;;;;;;;;;;5027755;28;20390;-51
2021/12/27 04:19:18;;;;;;;9.45;7.70;;;;;;;;;;5023576;28;20115;-53
2021/12/27 04:21:44;;;;;;;11.20;7.72;;;;;;;;;;5023763;28;20037;-56
2021/12/27 04:24:10;;;;;;;10.48;8.07;;;;;;;;;;5029820;28;20087;-48
2021/12/27 04:26:36;;;;;;;8.57;6.78;;;;;;;;;;5030926;28;20402;-49
2021/12/27 04:29:03;;;;;;;9.77;7.43;;;;;;;;;;5023292;28;20034;-49
2021/12/27 04:31:29;;;;;;;9.10;7.00;;;;;;;;;;5019078;28;20029;-54
2021/12/27 04:33:55;;;;;;;8.02;6.72;;;;;;;;;;5028938;28;20076;-48
2021/12/27 04:36:21;;;;;;;9.40;7.50;;;;;;;;;;5028538;28;20030;-53
2021/12/27 04:38:46;;;;;;;11.48;6.78;;;;;;;;;;5026964;28;20029;-51
2021/12/27 04:41:18;;;;;;;8.95;6.82;;;;;;;;;;5024488;28;20095;-52
2021/12/27 04:43:44;;;;;;;10.93;6.43;;;;;;;;;;5028428;28;20022;-49
2021/12/27 04:46:09;;;;;;;6.93;6.22;;;;;;;;;;5018198;28;20021;-50
2021/12/27 04:48:35;;;;;;;7.05;6.18;;;;;;;;;;5032607;28;20029;-53
2021/12/27 04:51:01;;;;;;;8.38;6.15;;;;;;;;;;5027917;28;20471;-53
2021/12/27 04:53:27;;;;;;;7.47;6.28;;;;;;;;;;5029417;28;20065;-53
2021/12/27 04:55:53;;;;;;;9.13;5.60;;;;;;;;;;5029992;28;20029;-51
2021/12/27 04:58:21;;;;;;;7.32;5.68;;;;;;;;;;5030430;28;20496;-50
2021/12/27 05:00:48;;;;;;;5.75;5.20;;;;;;;;;;5021617;28;20041;-53
2021/12/27 05:03:14;;;;;;;7.55;4.85;;;;;;;;;;5016723;28;20053;-56
2021/12/27 05:05:43;;;;;;;8.07;5.45;;;;;;;;;;5023184;28;20390;-54
2021/12/27 05:08:11;;;;;;;7.10;4.88;;;;;;;;;;5027263;28;20045;-52
2021/12/27 05:10:37;;;;;;;6.05;4.32;;;;;;;;;;5027768;28;20020;-55
2021/12/27 05:13:04;;;;;;;4.72;4.25;;;;;;;;;;5022874;28;20030;-53
2021/12/27 05:15:29;;;;;;;4.63;3.90;;;;;;;;;;5023024;28;20038;-49
2021/12/27 05:17:55;;;;;;;4.60;4.15;;;;;;;;;;5025477;28;20084;-53
2021/12/27 05:20:21;;;;;;;7.55;4.05;;;;;;;;;;5031138;28;20128;-55
2021/12/27 05:22:47;;;;;;;4.20;3.80;;;;;;;;;;5027511;28;20064;-55
2021/12/27 05:25:16;;;;;;;6.20;3.60;;;;;;;;;;5027300;28;20111;-50
2021/12/27 05:27:45;;;;;;;3.97;3.35;;;;;;;;;;5027856;28;20041;-56
2021/12/27 05:30:13;;;;;;;3.25;2.95;;;;;;;;;;5060406;28;20061;-53
2021/12/27 05:32:40;;;;;;;7.55;3.35;;;;;;;;;;5025481;28;20034;-56
2021/12/27 05:35:08;;;;;;;3.28;2.95;;;;;;;;;;5024230;28;20072;-54
2021/12/27 05:37:33;;;;;;;4.35;3.28;;;;;;;;;;5029880;28;20036;-56
2021/12/27 05:40:04;;;;;;;3.58;3.03;;;;;;;;;;5015820;28;20387;-54
2021/12/27 05:42:31;;;;;;;6.05;3.20;;;;;;;;;;5015815;28;20033;-52
2021/12/27 05:44:57;;;;;;;3.92;3.15;;;;;;;;;;5017785;28;20036;-55
2021/12/27 05:47:23;;;;;;;4.10;3.70;;;;;;;;;;5026640;28;20411;-53
2021/12/27 05:49:49;;;;;;;5.70;3.42;;;;;;;;;;5029001;28;20048;-54
2021/12/27 05:52:15;;;;;;;3.78;3.30;;;;;;;;;;5029886;28;20091;-52
2021/12/27 05:54:40;;;;;;;3.88;3.33;;;;;;;;;;5022966;28;20083;-55
2021/12/27 05:57:06;;;;;;;4.13;3.72;;;;;;;;;;5023636;28;20046;-56
2021/12/27 05:59:32;;;;;;;4.97;3.50;;;;;;;;;;5036632;28;20068;-53
2021/12/27 06:01:58;;;;;;;10.50;3.58;;;;;;;;;;5032561;28;20033;-56
2021/12/27 06:04:23;;;;;;;5.22;3.30;;;;;;;;;;5027692;28;20025;-54
2021/12/27 06:06:49;;;;;;;3.65;2.97;;;;;;;;;;5027939;28;20072;-54
2021/12/27 06:09:14;;;;;;;3.42;3.13;;;;;;;;;;5029463;28;20486;-56
2021/12/27 06:11:40;;;;;;;4.05;3.38;;;;;;;;;;5034683;28;20462;-56
2021/12/27 06:14:06;;;;;;;5.03;3.42;;;;;;;;;;5027392;28;20116;-53
2021/12/27 06:16:32;;;;;;;4.38;3.97;;;;;;;;;;5031188;28;20666;-55
2021/12/27 06:18:58;;;;;;;4.20;3.65;;;;;;;;;;5034618;28;20049;-52
2021/12/27 06:21:25;;;;;;;4.63;3.53;;;;;;;;;;5028380;28;20026;-52
2021/12/27 06:23:51;;;;;;;4.38;4.00;;;;;;;;;;5033501;28;20053;-55
2021/12/27 06:26:17;;;;;;;4.38;3.75;;;;;;;;;;5035713;28;20501;-54
2021/12/27 06:28:44;;;;;;;4.10;3.60;;;;;;;;;;5026992;28;20082;-54
2021/12/27 06:31:10;;;;;;;3.72;3.42;;;;;;;;;;5028997;28;20095;-53
2021/12/27 06:33:36;;;;;;;4.72;3.58;;;;;;;;;;5024500;28;20491;-56
2021/12/27 06:36:02;;;;;;;4.93;3.97;;;;;;;;;;5023393;28;20069;-55
2021/12/27 06:38:28;;;;;;;6.10;3.72;;;;;;;;;;5032199;28;20037;-55
2021/12/27 06:40:55;;;;;;;3.50;3.20;;;;;;;;;;5034319;28;20028;-57
2021/12/27 06:43:21;;;;;;;3.25;2.88;;;;;;;;;;5022509;28;20445;-53
2021/12/27 06:45:47;;;;;;;4.38;3.35;;;;;;;;;;5034585;28;20033;-54
2021/12/27 06:48:15;;;;;;;3.33;3.00;;;;;;;;;;5030741;28;20026;-54
2021/12/27 06:50:41;;;;;;;3.35;3.05;;;;;;;;;;5035113;28;20112;-56
2021/12/27 06:53:07;;;;;;;6.05;3.10;;;;;;;;;;5030323;28;20041;-56
2021/12/27 06:55:32;;;;;;;3.05;2.70;;;;;;;;;;5030106;28;20033;-56
2021/12/27 06:57:58;;;;;;;3.72;3.00;;;;;;;;;;5018570;28;20021;-56
2021/12/27 07:00:24;;;;;;;4.45;2.90;;;;;;;;;;5021975;28;20025;-55
2021/12/27 07:02:50;;;;;;;3.65;3.28;;;;;;;;;;5030059;28;20034;-55
2021/12/27 07:05:17;;;;;;;2.83;2.63;;;;;;;;;;5020269;28;20069;-56
2021/12/27 07:07:43;;;;;;;6.35;2.97;;;;;;;;;;5027168;28;20027;-54
2021/12/27 07:10:12;;;;;;;5.28;3.00;;;;;;;;;;5030503;28;20045;-50
2021/12/27 07:12:39;;;;;;;2.95;2.50;;;;;;;;;;5032631;28;20053;-55
2021/12/27 07:15:06;;;;;;;3.17;2.70;;;;;;;;;;5034669;28;20482;-51
2021/12/27 07:17:32;;;;;;;2.83;2.20;;;;;;;;;;5025718;28;20166;-48
2021/12/27 07:19:58;;;;;;;2.50;2.30;;;;;;;;;;5027524;28;20099;-55
2021/12/27 07:22:24;;;;;;;2.47;2.28;;;;;;;;;;5022634;28;20032;-50
2021/12/27 07:24:50;;;;;;;2.90;2.70;;;;;;;;;;5030127;28;20437;-50
2021/12/27 07:27:16;;;;;;;3.10;2.63;;;;;;;;;;5037989;28;20037;-50
2021/12/27 07:29:41;;;;;;;4.45;2.20;;;;;;;;;;5025885;28;20092;-53
2021/12/27 07:32:08;;;;;;;5.20;2.90;;;;;;;;;;5031410;28;20165;-52
2021/12/27 07:34:33;;;;;;;2.97;2.75;;;;;;;;;;5024154;28;20041;-51
2021/12/27 07:36:59;;;;;;;7.15;3.75;;;;;;;;;;5027601;28;20029;-52
2021/12/27 07:39:26;;;;;;;4.32;3.92;;;;;;;;;;5027777;28;20030;-51
2021/12/27 07:41:52;;;;;;;4.85;3.90;;;;;;;;;;5026074;28;20042;-49
2021/12/27 07:44:18;;;;;;;4.18;3.78;;;;;;;;;;5036388;28;20045;-52
2021/12/27 07:46:46;;;;;;;7.80;4.05;;;;;;;;;;5025665;28;20470;-50
2021/12/27 07:49:14;;;;;;;4.47;3.17;;;;;;;;;;5018870;28;20030;-52
2021/12/27 07:51:40;;;;;;;4.68;3.22;;;;;;;;;;5028864;28;20475;-52
2021/12/27 07:54:06;;;;;;;3.20;2.90;;;;;;;;;;5036078;28;20036;-50
2021/12/27 07:56:33;;;;;;;3.38;2.72;;;;;;;;;;5028539;28;20069;-55
2021/12/27 07:59:04;;;;;;;5.82;2.63;;;;;;;;;;5024440;28;20025;-50
2021/12/27 08:01:32;;;;;;;5.95;5.35;;;;;;;;;;5026428;28;20040;-50
2021/12/27 08:03:57;;;;;;;3.92;3.15;;;;;;;;;;5018548;28;20402;-50
2021/12/27 08:06:23;;;;;;;3.30;3.00;;;;;;;;;;5020843;28;20018;-50
2021/12/27 08:08:49;;;;;;;5.00;2.10;;;;;;;;;;5038608;28;20030;-48
2021/12/27 08:11:15;;;;;;;4.30;2.10;;;;;;;;;;5027217;28;20621;-49
2021/12/27 08:13:42;;;;;;;4.07;2.38;;;;;;;;;;5028889;28;20489;-48
2021/12/27 08:16:11;;;;;;;3.72;2.50;;;;;;;;;;5018957;28;20037;-51
2021/12/27 08:18:38;;;;;;;4.55;2.42;;;;;;;;;;5031493;28;20479;-53
2021/12/27 08:21:04;;;;;;;3.55;2.28;;;;;;;;;;5031157;28;20042;-51
2021/12/27 08:23:29;;;;;;;2.30;2.10;;;;;;;;;;5029926;28;20090;-53
2021/12/27 08:25:55;;;;;;;3.50;2.78;;;;;;;;;;5030041;28;20025;-52
2021/12/27 08:28:21;;;;;;;3.78;3.28;;;;;;;;;;5030010;28;20021;-49
2021/12/27 08:30:47;;;;;;;4.13;3.72;;;;;;;;;;5019328;28;20026;-50
2021/12/27 08:33:13;;;;;;;6.30;3.97;;;;;;;;;;5031960;28;20033;-52
2021/12/27 08:35:40;;;;;;;6.45;4.68;;;;;;;;;;5031057;28;20036;-51
2021/12/27 08:38:06;;;;;;;8.30;5.65;;;;;;;;;;5029037;28;20049;-53
2021/12/27 08:40:32;;;;;;;5.90;4.22;;;;;;;;;;5026450;28;20036;-49
2021/12/27 08:42:58;;;;;;;8.30;3.50;;;;;;;;;;5021415;28;20408;-52
2021/12/27 08:45:24;;;;;;;4.45;3.90;;;;;;;;;;5026830;28;20033;-52
2021/12/27 08:47:50;;;;;;;14.95;10.73;;;;;;;;;;5033744;28;20032;-50
2021/12/27 08:50:17;;;;;;;24.55;15.82;;;;;;;;;;5029529;28;20033;-47
2021/12/27 08:52:44;;;;;;;26.58;16.33;;;;;;;;;;5022550;28;20033;-51
2021/12/27 08:55:11;;;;;;;34.88;19.70;;;;;;;;;;5027622;28;20117;-50
2021/12/27 08:57:39;;;;;;;31.48;18.23;;;;;;;;;;5025945;28;20049;-47
2021/12/27 09:00:09;;;;;;;12.10;6.60;;;;;;;;;;5032962;28;20034;-48
2021/12/27 09:02:35;;;;;;;4.90;4.13;;;;;;;;;;5032663;28;20037;-49
2021/12/27 09:05:01;;;;;;;3.90;3.60;;;;;;;;;;5028372;28;20090;-47
2021/12/27 09:07:28;;;;;;;4.40;3.97;;;;;;;;;;5026173;28;20084;-50
2021/12/27 09:09:53;;;;;;;6.28;4.10;;;;;;;;;;5027184;28;20080;-48
2021/12/27 09:12:19;;;;;;;4.63;3.50;;;;;;;;;;5024656;28;20381;-54
2021/12/27 09:14:45;;;;;;;6.40;3.80;;;;;;;;;;5023400;28;20031;-51
2021/12/27 09:17:11;;;;;;;12.75;7.75;;;;;;;;;;5023405;28;20030;-51
2021/12/27 09:19:37;;;;;;;13.15;10.10;;;;;;;;;;5028137;28;20136;-49
2021/12/27 09:22:03;;;;;;;20.60;13.77;;;;;;;;;;5024823;28;20034;-51
2021/12/27 09:24:31;;;;;;;20.90;13.90;;;;;;;;;;5022156;28;20056;-51
2021/12/27 09:26:58;;;;;;;9.73;7.18;;;;;;;;;;5030080;28;20053;-51
2021/12/27 09:29:24;;;;;;;11.55;6.85;;;;;;;;;;5022383;28;20480;-53
2021/12/27 09:31:50;;;;;;;3.88;3.55;;;;;;;;;;5035127;28;20125;-49
2021/12/27 09:34:17;;;;;;;5.80;3.30;;;;;;;;;;5027961;28;20041;-51
2021/12/27 09:36:42;;;;;;;3.75;2.97;;;;;;;;;;5030962;28;20037;-56
2021/12/27 09:39:08;;;;;;;4.60;2.90;;;;;;;;;;5033171;28;20178;-52
2021/12/27 09:41:34;;;;;;;8.93;4.22;;;;;;;;;;5033135;28;20115;-52
2021/12/27 09:44:00;;;;;;;7.72;6.10;;;;;;;;;;5039415;28;20029;-48
2021/12/27 09:46:25;;;;;;;9.00;6.35;;;;;;;;;;5029129;28;20033;-49
2021/12/27 09:48:54;;;;;;;9.63;4.82;;;;;;;;;;5027881;28;20033;-56
2021/12/27 09:51:21;;;;;;;7.20;4.82;;;;;;;;;;5018171;28;20463;-51
2021/12/27 09:53:48;;;;;;;5.88;4.82;;;;;;;;;;5036271;28;20029;-50
2021/12/27 09:56:14;;;;;;;5.63;4.78;;;;;;;;;;5032073;28;20433;-53
2021/12/27 09:58:40;;;;;;;4.13;3.28;;;;;;;;;;5027589;28;20470;-51
2021/12/27 10:01:07;;;;;;;5.20;3.53;;;;;;;;;;5020715;28;20041;-49
2021/12/27 10:03:53;;;;;;;4.78;3.15;;;;;;;;;;5027846;28;20033;-49
2021/12/27 10:06:21;;;;;;;7.72;3.78;;;;;;;;;;5035420;28;20033;-53
2021/12/27 10:08:59;;;;;;;9.38;4.60;;;;;;;;;;5023056;28;20096;-52
2021/12/27 10:11:29;;;;;;;5.38;3.88;;;;;;;;;;5038996;28;20025;-48
2021/12/27 10:14:16;;;;;;;6.32;3.70;;;;;;;;;;5037857;28;20108;-51
2021/12/27 10:16:46;;;;;;;4.30;3.40;;;;;;;;;;5029968;28;20044;-50
2021/12/27 10:19:16;;;;;;;6.82;3.97;;;;;;;;;;5030092;28;20049;-49
2021/12/27 10:21:46;;;;;;;4.30;3.42;;;;;;;;;;5031763;28;20028;-54
2021/12/27 10:24:21;;;;;;;18.48;12.70;;;;;;;;;;5035786;28;20051;-50
2021/12/27 10:26:49;;;;;;;7.80;6.25;;;;;;;;;;5031544;28;20113;-50
2021/12/27 10:29:18;;;;;;;15.25;11.57;;;;;;;;;;5029617;28;20479;-49
2021/12/27 10:31:55;;;;;;;7.80;4.75;;;;;;;;;;5029396;28;20104;-54
2021/12/27 10:34:24;;;;;;;6.03;4.03;;;;;;;;;;5033771;28;20029;-50
2021/12/27 10:37:07;;;;;;;3.70;3.40;;;;;;;;;;5026440;28;20025;-50
2021/12/27 10:39:44;;;;;;;6.30;3.65;;;;;;;;;;5024580;28;20565;-50
2021/12/27 10:42:16;;;;;;;4.63;4.18;;;;;;;;;;5023901;28;20049;-55
2021/12/27 10:44:42;;;;;;;7.72;5.07;;;;;;;;;;5027159;28;20116;-50
2021/12/27 10:47:40;;;;;;;12.57;4.78;;;;;;;;;;5029654;28;20041;-49
2021/12/27 10:50:15;;;;;;;9.90;5.75;;;;;;;;;;5028007;28;20048;-53
2021/12/27 10:52:45;;;;;;;6.22;4.53;;;;;;;;;;5027284;28;20060;-55
2021/12/27 10:55:13;;;;;;;6.28;4.50;;;;;;;;;;5025035;28;20482;-51
2021/12/27 10:57:39;;;;;;;5.78;3.95;;;;;;;;;;5023185;28;20052;-55
2021/12/27 11:00:19;;;;;;;4.43;3.20;;;;;;;;;;5025527;28;20064;-55
2021/12/27 11:02:44;;;;;;;3.45;3.15;;;;;;;;;;5028828;28;20042;-48
2021/12/27 11:05:15;;;;;;;4.28;3.30;;;;;;;;;;5031140;28;20041;-57
2021/12/27 11:07:41;;;;;;;4.40;3.75;;;;;;;;;;5022195;28;20030;-51
2021/12/27 11:10:08;;;;;;;3.60;3.30;;;;;;;;;;5026160;28;20041;-51
2021/12/27 11:12:34;;;;;;;7.60;4.38;;;;;;;;;;5027978;28;20160;-50
2021/12/27 11:14:59;;;;;;;8.23;3.75;;;;;;;;;;5026992;28;20112;-53
2021/12/27 11:17:26;;;;;;;6.82;3.40;;;;;;;;;;5032986;28;20026;-56
2021/12/27 11:19:51;;;;;;;4.40;3.25;;;;;;;;;;5031351;28;20053;-49
2021/12/27 11:22:17;;;;;;;9.25;4.07;;;;;;;;;;5021049;28;20102;-56
2021/12/27 11:24:44;;;;;;;4.80;4.05;;;;;;;;;;5026956;28;20068;-56
2021/12/27 11:27:13;;;;;;;4.80;4.32;;;;;;;;;;5027774;28;20053;-49
2021/12/27 11:29:39;;;;;;;11.70;4.90;;;;;;;;;;5032909;28;20034;-52
2021/12/27 11:32:11;;;;;;;9.27;4.88;;;;;;;;;;5028363;28;20034;-51
2021/12/27 11:35:00;;;;;;;9.60;5.10;;;;;;;;;;5024116;28;20043;-55
2021/12/27 11:37:40;;;;;;;5.95;4.40;;;;;;;;;;5030539;28;20043;-54
2021/12/27 11:40:11;;;;;;;5.57;4.82;;;;;;;;;;5025082;28;20079;-53
2021/12/27 11:42:54;;;;;;;6.95;4.90;;;;;;;;;;5026323;28;20077;-51
2021/12/27 11:45:54;;;;;;;8.20;5.60;;;;;;;;;;5030675;28;20030;-52
2021/12/27 11:48:23;;;;;;;8.05;5.82;;;;;;;;;;5007054;28;20137;-52
2021/12/27 11:51:10;;;;;;;7.82;7.13;;;;;;;;;;5010720;28;20104;-50
2021/12/27 11:53:44;;;;;;;8.23;6.72;;;;;;;;;;5010557;28;20459;-49
2021/12/27 11:56:16;;;;;;;10.10;7.20;;;;;;;;;;5006959;28;20092;-54
2021/12/27 11:58:46;;;;;;;11.50;7.35;;;;;;;;;;5011564;28;20120;-53
2021/12/27 12:01:20;;;;;;;8.98;8.00;;;;;;;;;;5007426;28;20135;-51
2021/12/27 12:03:48;;;;;;;11.85;9.80;;;;;;;;;;5011987;28;20046;-51
2021/12/27 12:06:43;;;;;;;9.23;8.32;;;;;;;;;;5009124;28;20026;-55
2021/12/27 12:09:17;;;;;;;9.15;6.32;;;;;;;;;;5009874;28;20073;-55
2021/12/27 12:11:45;;;;;;;5.90;5.22;;;;;;;;;;5006264;28;20069;-53
2021/12/27 12:14:32;;;;;;;7.40;6.15;;;;;;;;;;5009914;28;20029;-54
2021/12/27 12:17:00;;;;;;;8.27;6.72;;;;;;;;;;5010731;28;20664;-55
2021/12/27 12:19:36;;;;;;;7.45;5.97;;;;;;;;;;5009676;28;20537;-53
2021/12/27 12:22:02;;;;;;;6.68;6.05;;;;;;;;;;5000573;28;20121;-55
2021/12/27 12:24:29;;;;;;;5.78;5.18;;;;;;;;;;5016845;28;20449;-53
2021/12/27 12:27:04;;;;;;;5.07;4.57;;;;;;;;;;5021957;28;20080;-54
2021/12/27 12:29:50;;;;;;;5.22;4.63;;;;;;;;;;5028103;28;20056;-54
2021/12/27 12:32:16;;;;;;;6.40;4.05;;;;;;;;;;5022222;28;20038;-54
2021/12/27 12:34:42;;;;;;;4.55;4.15;;;;;;;;;;5033086;28;20057;-52
2021/12/27 12:37:11;;;;;;;4.25;3.85;;;;;;;;;;5020851;28;20037;-56
2021/12/27 12:39:41;;;;;;;4.88;3.97;;;;;;;;;;5021611;28;20260;-51
2021/12/27 12:42:14;;;;;;;4.78;4.15;;;;;;;;;;5027149;28;20041;-57
2021/12/27 12:44:53;;;;;;;6.88;4.90;;;;;;;;;;5024886;28;20032;-54
2021/12/27 12:47:21;;;;;;;7.15;5.07;;;;;;;;;;5029432;28;20072;-56
2021/12/27 12:49:47;;;;;;;7.75;5.15;;;;;;;;;;5025848;28;20390;-54
2021/12/27 12:52:14;;;;;;;4.75;4.35;;;;;;;;;;5022591;28;20090;-56
2021/12/27 12:54:42;;;;;;;8.32;5.72;;;;;;;;;;5021155;28;20037;-53
2021/12/27 12:57:10;;;;;;;14.18;10.15;;;;;;;;;;5029556;28;20033;-50
2021/12/27 12:59:45;;;;;;;11.77;9.35;;;;;;;;;;5031238;28;20033;-54
2021/12/27 13:02:20;;;;;;;12.40;8.38;;;;;;;;;;5019406;28;20025;-55
2021/12/27 13:04:56;;;;;;;18.52;12.63;;;;;;;;;;5061819;28;20029;-51
2021/12/27 13:07:33;;;;;;;11.52;9.43;;;;;;;;;;5036236;28;20116;-54
2021/12/27 13:10:00;;;;;;;12.02;10.23;;;;;;;;;;5026295;28;20060;-55
2021/12/27 13:12:28;;;;;;;11.25;9.30;;;;;;;;;;5035319;28;20030;-52
2021/12/27 13:14:54;;;;;;;10.88;8.63;;;;;;;;;;5032949;28;20030;-55
2021/12/27 13:17:25;;;;;;;14.50;9.75;;;;;;;;;;5035366;28;20029;-53
2021/12/27 13:20:07;;;;;;;17.58;10.48;;;;;;;;;;5030140;28;20053;-56
2021/12/27 13:22:56;;;;;;;13.30;8.63;;;;;;;;;;5031258;28;21147;-56
2021/12/27 13:25:35;;;;;;;10.35;8.38;;;;;;;;;;5027830;28;20135;-51
2021/12/27 13:28:04;;;;;;;10.55;9.23;;;;;;;;;;5025497;28;20501;-54
2021/12/27 13:30:30;;;;;;;11.15;8.85;;;;;;;;;;5027138;28;20030;-56
2021/12/27 13:32:56;;;;;;;14.30;10.40;;;;;;;;;;5036065;28;20030;-56
2021/12/27 13:35:22;;;;;;;15.02;8.30;;;;;;;;;;5033922;28;20022;-56
2021/12/27 13:37:48;;;;;;;9.85;8.23;;;;;;;;;;5030674;28;20203;-55
2021/12/27 13:40:14;;;;;;;8.65;7.78;;;;;;;;;;5025672;28;20388;-54
2021/12/27 13:42:43;;;;;;;11.18;8.43;;;;;;;;;;5028122;28;20049;-56
2021/12/27 13:45:14;;;;;;;10.65;9.27;;;;;;;;;;5035727;28;20052;-54
2021/12/27 13:47:57;;;;;;;15.07;11.00;;;;;;;;;;5029449;28;20399;-57
2021/12/27 13:50:27;;;;;;;13.05;9.52;;;;;;;;;;5034305;28;20033;-57
2021/12/27 13:52:54;;;;;;;19.05;10.95;;;;;;;;;;5034992;28;20029;-52
2021/12/27 13:55:21;;;;;;;14.50;9.80;;;;;;;;;;5028794;28;20029;-56
2021/12/27 13:57:47;;;;;;;15.75;10.90;;;;;;;;;;5034867;28;20025;-56
2021/12/27 14:00:14;;;;;;;21.55;11.95;;;;;;;;;;5031398;28;20025;-56
2021/12/27 14:02:44;;;;;;;19.67;11.57;;;;;;;;;;5033933;28;20033;-56
2021/12/27 14:05:10;;;;;;;21.13;13.15;;;;;;;;;;5028158;28;20037;-57
2021/12/27 14:07:36;;;;;;;21.15;13.63;;;;;;;;;;5028721;28;20033;-55
2021/12/27 14:10:04;;;;;;;17.52;14.15;;;;;;;;;;5027860;28;20029;-57
2021/12/27 14:12:31;;;;;;;25.15;14.40;;;;;;;;;;5029149;28;20410;-56
2021/12/27 14:15:02;;;;;;;21.20;14.77;;;;;;;;;;5031904;28;20029;-57
2021/12/27 14:17:30;;;;;;;26.63;14.77;;;;;;;;;;5028784;28;20026;-55
2021/12/27 14:20:06;;;;;;;23.23;14.85;;;;;;;;;;5027916;28;20296;-56
2021/12/27 14:22:43;;;;;;;28.80;16.20;;;;;;;;;;5026091;28;20149;-51
2021/12/27 14:25:11;;;;;;;33.63;18.33;;;;;;;;;;5027264;28;20506;-53
2021/12/27 14:27:47;;;;;;;25.45;16.00;;;;;;;;;;5022738;28;20033;-52
2021/12/27 14:30:27;;;;;;;17.98;12.63;;;;;;;;;;5031303;28;20099;-52
2021/12/27 14:32:55;;;;;;;15.55;10.93;;;;;;;;;;5023409;28;20046;-54
2021/12/27 14:35:33;;;;;;;15.48;9.45;;;;;;;;;;5026132;28;20128;-50
2021/12/27 14:38:08;;;;;;;10.60;9.50;;;;;;;;;;5029242;28;20084;-53
2021/12/27 14:40:37;;;;;;;11.90;10.05;;;;;;;;;;5024527;28;20036;-51
2021/12/27 14:43:04;;;;;;;13.52;9.70;;;;;;;;;;5031435;28;20033;-52
2021/12/27 14:45:31;;;;;;;11.75;9.07;;;;;;;;;;5017911;28;20133;-49